Time;durP1;ratioP1;P1;durP2;ratioP2;P2;SDS_P1;SDS_P2;PMS_P1;PMS_P2;Temp;Humidity;BMP_temperature;BMP_pressure;BME280_temperature;BME280_humidity;BME280_pressure;Samples;Min_cycle;Max_cycle;Signal;HPM_P1;HPM_P2
2022/05/03 00:00:01;;;;;;;30.73;18.27;;;;;;;9.21;87.26;99609.28;5095210;28;20059;-75
2022/05/03 00:02:40;;;;;;;45.20;23.80;;;;;;;9.38;86.41;99603.84;5095074;28;20080;-75
2022/05/03 00:05:10;;;;;;;33.83;20.63;;;;;;;9.08;87.41;99611.75;5095794;28;20508;-75
2022/05/03 00:07:43;;;;;;;45.35;24.08;;;;;;;9.42;86.75;99602.72;5093700;28;20050;-75
2022/05/03 00:10:13;;;;;;;39.47;21.48;;;;;;;9.30;85.89;99602.53;5094308;28;20043;-75
2022/05/03 00:12:44;;;;;;;37.40;21.95;;;;;;;8.99;87.18;99608.63;5094537;28;20063;-76
2022/05/03 00:15:15;;;;;;;40.28;22.27;;;;;;;9.33;86.53;99605.06;5094348;28;20044;-75
2022/05/03 00:17:43;;;;;;;38.60;21.60;;;;;;;9.20;86.87;99600.34;5093464;28;20554;-75
2022/05/03 00:20:11;;;;;;;35.00;20.70;;;;;;;9.45;85.75;99596.28;5093729;28;20048;-75
2022/05/03 00:22:39;;;;;;;37.65;21.73;;;;;;;9.14;86.57;99603.34;5093089;28;20378;-75
2022/05/03 00:25:07;;;;;;;38.22;21.65;;;;;;;9.11;86.80;99600.81;5093798;28;20044;-75
2022/05/03 00:27:35;;;;;;;38.83;21.13;;;;;;;9.28;86.77;99600.78;5093969;28;20044;-75
2022/05/03 00:30:06;;;;;;;36.17;20.63;;;;;;;9.10;87.24;99591.88;5093416;28;20044;-75
2022/05/03 00:32:34;;;;;;;34.30;20.48;;;;;;;9.18;87.08;99602.25;5093687;28;20085;-76
2022/05/03 00:35:01;;;;;;;34.63;21.08;;;;;;;9.16;86.41;99601.44;5093289;28;20044;-75
2022/05/03 00:37:29;;;;;;;36.83;20.80;;;;;;;9.36;85.07;99602.19;5093675;28;20048;-75
2022/05/03 00:39:56;;;;;;;36.22;20.70;;;;;;;9.08;85.78;99601.00;5093278;28;20085;-75
2022/05/03 00:42:27;;;;;;;34.53;20.17;;;;;;;9.12;86.12;99603.44;5092962;28;20497;-76
2022/05/03 00:45:05;;;;;;;35.30;20.95;;;;;;;9.27;85.57;99595.47;5093478;28;20118;-75
2022/05/03 00:47:43;;;;;;;34.70;20.40;;;;;;;9.25;85.42;99598.25;5093392;28;20040;-76
2022/05/03 00:50:17;;;;;;;43.78;21.25;;;;;;;9.25;85.16;99600.97;5092230;28;20044;-75
2022/05/03 00:52:48;;;;;;;32.67;19.73;;;;;;;9.33;84.61;99596.97;5073934;28;20128;-75
2022/05/03 00:55:31;;;;;;;34.10;19.42;;;;;;;9.27;84.77;99595.47;5093972;28;20105;-75
2022/05/03 00:58:08;;;;;;;32.50;18.48;;;;;;;9.28;84.50;99599.91;5094154;28;20492;-75
2022/05/03 01:00:42;;;;;;;33.55;19.02;;;;;;;9.37;84.18;99595.84;5093005;28;20044;-75
2022/05/03 01:03:12;;;;;;;31.52;18.85;;;;;;;8.88;85.56;99589.47;5094259;28;20066;-75
2022/05/03 01:05:47;;;;;;;33.60;19.02;;;;;;;8.78;86.93;99589.09;5091752;28;20085;-74
2022/05/03 01:08:29;;;;;;;31.88;19.85;;;;;;;8.81;87.02;99586.22;5093749;28;20044;-75
2022/05/03 01:11:06;;;;;;;40.65;20.42;;;;;;;8.77;87.15;99589.16;5094552;28;20062;-75
2022/05/03 01:13:36;;;;;;;36.50;20.52;;;;;;;8.90;86.83;99594.75;5079003;28;20501;-76
2022/05/03 01:16:07;;;;;;;37.72;22.13;;;;;;;8.99;86.10;99583.53;5092542;28;20040;-76
2022/05/03 01:18:41;;;;;;;39.75;21.33;;;;;;;8.97;86.15;99583.59;5091364;28;20044;-75
2022/05/03 01:21:13;;;;;;;33.42;20.63;;;;;;;9.11;84.76;99577.47;5094477;28;20067;-75
2022/05/03 01:23:51;;;;;;;34.35;18.40;;;;;;;9.13;84.32;99571.97;5094227;28;20037;-75
2022/05/03 01:26:48;;;;;;;37.38;20.45;;;;;;;9.38;82.34;99576.00;5092978;28;20073;-75
2022/05/03 01:29:32;;;;;;;;;;;;;;;9.38;82.32;99573.31;5094708;28;20050;-75
2022/05/03 01:32:02;;;;;;;25.67;15.23;;;;;;;9.47;82.14;99575.50;5092949;28;19920;-76
2022/05/03 01:34:30;;;;;;;27.33;15.18;;;;;;;9.33;81.83;99575.41;5091865;28;20401;-76
2022/05/03 01:37:13;;;;;;;25.65;15.43;;;;;;;9.29;82.46;99572.00;5093109;28;20493;-76
2022/05/03 01:39:48;;;;;;;23.05;14.95;;;;;;;9.16;82.80;99571.78;5094810;28;20040;-75
2022/05/03 01:42:26;;;;;;;25.42;14.63;;;;;;;9.19;82.90;99581.53;5092292;28;20040;-75
2022/05/03 01:45:03;;;;;;;26.60;15.38;;;;;;;9.07;83.19;99573.19;5094336;28;20111;-75
2022/05/03 01:47:37;;;;;;;26.13;16.17;;;;;;;9.03;83.27;99571.63;5092635;28;20078;-74
2022/05/03 01:50:20;;;;;;;25.85;15.98;;;;;;;9.02;83.52;99563.59;5093088;28;20048;-75
2022/05/03 01:53:12;;;;;;;29.80;16.45;;;;;;;8.98;83.19;99562.91;5093568;28;20044;-76
2022/05/03 01:56:14;;;;;;;28.60;17.25;;;;;;;9.12;82.52;99562.16;5094038;28;20044;-77
2022/05/03 01:58:59;;;;;;;28.25;17.08;;;;;;;8.95;82.91;99563.94;5092950;28;20070;-76
2022/05/03 02:01:41;;;;;;;27.88;17.80;;;;;;;8.85;83.77;99562.72;5096939;28;20050;-76
2022/05/03 02:04:20;;;;;;;27.88;17.40;;;;;;;9.04;83.70;99561.69;5096515;28;20052;-76
2022/05/03 02:06:54;;;;;;;29.75;17.52;;;;;;;9.05;82.90;99556.25;5096032;28;20840;-76
2022/05/03 02:09:26;;;;;;;32.22;19.20;;;;;;;9.13;82.40;99556.69;5097015;28;20048;-76
2022/05/03 02:12:04;;;;;;;28.38;18.60;;;;;;;9.31;81.76;99553.06;5097263;28;20408;-76
2022/05/03 02:14:46;;;;;;;31.48;18.42;;;;;;;9.31;81.99;99561.16;5097303;28;20437;-75
2022/05/03 02:17:27;;;;;;;30.10;19.70;;;;;;;9.23;82.29;99557.06;5096469;28;20036;-76
2022/05/03 02:20:02;;;;;;;33.28;19.80;;;;;;;9.37;80.98;99558.09;5096167;28;20067;-77
2022/05/03 02:22:47;;;;;;;32.90;20.02;;;;;;;9.16;82.17;99552.94;5097804;28;20101;-76
2022/05/03 02:25:20;;;;;;;32.13;19.50;;;;;;;9.07;83.56;99554.34;5097359;28;20138;-75
2022/05/03 02:28:04;;;;;;;30.95;19.42;;;;;;;9.16;83.21;99554.78;5097205;28;20405;-77
2022/05/03 02:30:33;;;;;;;30.13;19.27;;;;;;;9.20;82.45;99550.94;5097146;28;20044;-75
2022/05/03 02:33:05;;;;;;;34.90;19.98;;;;;;;9.09;82.47;99556.91;5095597;28;20036;-76
2022/05/03 02:35:34;;;;;;;30.77;19.52;;;;;;;9.08;83.09;99539.91;5095472;28;20040;-76
2022/05/03 02:38:05;;;;;;;31.83;20.42;;;;;;;8.90;83.56;99544.47;5095051;28;20055;-76
2022/05/03 02:40:34;;;;;;;30.42;19.17;;;;;;;9.05;82.44;99553.53;5096989;28;20076;-76
2022/05/03 02:43:01;;;;;;;28.95;19.00;;;;;;;9.19;82.58;99550.09;5074843;28;20055;-75
2022/05/03 02:45:30;;;;;;;33.65;19.35;;;;;;;8.86;83.16;99542.00;5079910;28;20047;-76
2022/05/03 02:48:07;;;;;;;26.42;17.38;;;;;;;8.68;84.84;99548.31;5094748;28;20055;-76
2022/05/03 02:50:40;;;;;;;27.83;18.38;;;;;;;8.67;84.58;99553.78;5096390;28;20044;-76
2022/05/03 02:53:10;;;;;;;28.92;18.38;;;;;;;8.61;85.40;99554.97;5096479;28;20055;-76
2022/05/03 02:55:50;;;;;;;29.05;18.63;;;;;;;8.74;85.62;99554.31;5095132;28;20047;-74
2022/05/03 02:58:41;;;;;;;31.20;18.88;;;;;;;8.54;85.64;99548.19;5095397;28;20040;-76
2022/05/03 03:04:07;;;;;;;28.52;19.13;;;;;;;8.71;84.75;99552.66;5096015;28;20096;-76
2022/05/03 03:06:36;;;;;;;30.08;19.05;;;;;;;8.59;85.72;99559.56;5096165;28;20048;-75
2022/05/03 03:09:04;;;;;;;31.17;18.55;;;;;;;8.66;84.81;99554.75;5094932;28;20443;-76
2022/05/03 03:11:39;;;;;;;29.58;19.23;;;;;;;8.51;85.96;99553.72;5095194;28;20109;-76
2022/05/03 03:14:11;;;;;;;32.33;19.57;;;;;;;8.46;86.52;99551.22;5094660;28;20056;-75
2022/05/03 03:16:44;;;;;;;32.78;19.35;;;;;;;8.51;86.88;99557.28;5095964;28;20044;-76
2022/05/03 03:19:34;;;;;;;32.13;18.88;;;;;;;8.52;85.66;99553.63;5096105;28;20040;-75
2022/05/03 03:22:02;;;;;;;30.42;19.30;;;;;;;8.43;86.04;99555.91;5075643;28;20052;-75
2022/05/03 03:24:30;;;;;;;29.17;18.48;;;;;;;8.57;86.09;99555.19;5074662;28;20493;-75
2022/05/03 03:26:58;;;;;;;28.42;18.85;;;;;;;8.62;85.15;99550.47;5074768;28;20109;-75
2022/05/03 03:29:27;;;;;;;30.65;19.33;;;;;;;8.70;84.71;99554.47;5087310;28;20516;-75
2022/05/03 03:31:55;;;;;;;30.10;18.67;;;;;;;8.65;84.38;99553.84;5094685;28;20044;-75
2022/05/03 03:34:24;;;;;;;29.05;18.75;;;;;;;8.78;84.58;99553.22;5094643;28;20069;-76
2022/05/03 03:37:01;;;;;;;30.52;18.63;;;;;;;8.84;83.94;99550.19;5094655;28;20040;-76
2022/05/03 03:39:30;;;;;;;30.42;18.40;;;;;;;8.84;82.88;99550.19;5094883;28;20054;-76
2022/05/03 03:41:59;;;;;;;29.00;18.05;;;;;;;9.13;81.69;99542.31;5094511;28;20076;-77
2022/05/03 03:44:26;;;;;;;35.30;20.25;;;;;;;9.06;82.35;99549.00;5094175;28;20039;-76
2022/05/03 03:46:55;;;;;;;31.25;18.15;;;;;;;8.96;82.65;99543.25;5094496;28;20040;-76
2022/05/03 03:49:22;;;;;;;30.00;19.23;;;;;;;9.04;83.19;99541.03;5094200;28;20461;-77
2022/05/03 03:51:51;;;;;;;30.88;19.15;;;;;;;9.13;82.09;99545.91;5074278;28;20094;-77
2022/05/03 03:54:20;;;;;;;29.02;18.52;;;;;;;9.26;81.52;99543.41;5074199;28;20040;-76
2022/05/03 03:56:48;;;;;;;31.33;18.35;;;;;;;9.22;81.18;99551.72;5074127;28;20048;-75
2022/05/03 03:59:16;;;;;;;29.23;19.17;;;;;;;9.23;80.80;99550.78;5073761;28;20071;-75
2022/05/03 04:01:44;;;;;;;29.42;18.48;;;;;;;9.23;81.11;99548.09;5089366;28;20044;-77
2022/05/03 04:04:12;;;;;;;31.08;18.52;;;;;;;9.23;81.79;99546.28;5094244;28;20072;-77
2022/05/03 04:06:40;;;;;;;28.35;17.95;;;;;;;9.30;80.54;99544.09;5094289;28;20043;-75
2022/05/03 04:09:08;;;;;;;30.88;18.80;;;;;;;9.47;80.77;99545.84;5093913;28;20048;-75
2022/05/03 04:11:44;;;;;;;29.38;18.98;;;;;;;9.48;79.97;99552.97;5093450;28;20090;-75
2022/05/03 04:14:12;;;;;;;30.42;19.17;;;;;;;9.46;80.71;99557.56;5092939;28;20056;-75
2022/05/03 04:16:40;;;;;;;29.83;18.90;;;;;;;9.56;80.58;99552.53;5093725;28;20043;-75
2022/05/03 04:19:07;;;;;;;28.23;18.95;;;;;;;9.61;80.51;99547.75;5093801;28;20051;-75
2022/05/03 04:21:35;;;;;;;28.92;18.77;;;;;;;9.72;79.83;99544.44;5092916;28;20040;-76
2022/05/03 04:24:04;;;;;;;30.23;18.90;;;;;;;9.78;80.20;99549.47;5093344;28;20097;-76
2022/05/03 04:26:31;;;;;;;30.77;18.33;;;;;;;9.71;80.48;99551.66;5092278;28;20039;-75
2022/05/03 04:29:01;;;;;;;28.00;18.20;;;;;;;9.80;80.16;99550.25;5093677;28;20105;-75
2022/05/03 04:31:30;;;;;;;30.02;19.27;;;;;;;9.90;79.70;99549.72;5093026;28;20417;-75
2022/05/03 04:33:57;;;;;;;30.08;18.60;;;;;;;9.97;79.90;99551.09;5093429;28;20040;-75
2022/05/03 04:36:26;;;;;;;27.92;17.58;;;;;;;10.07;79.57;99548.75;5093625;28;20066;-74
2022/05/03 04:38:54;;;;;;;27.58;18.02;;;;;;;10.12;79.31;99544.81;5093759;28;20071;-75
2022/05/03 04:41:21;;;;;;;28.17;18.27;;;;;;;10.08;80.04;99554.06;5092774;28;20043;-76
2022/05/03 04:43:49;;;;;;;26.83;18.15;;;;;;;10.26;79.18;99551.22;5093480;28;20050;-76
2022/05/03 04:46:19;;;;;;;29.23;18.42;;;;;;;10.40;78.81;99554.00;5093467;28;20119;-74
2022/05/03 04:48:47;;;;;;;24.45;17.45;;;;;;;10.52;79.11;99556.91;5092657;28;20458;-74
2022/05/03 04:51:19;;;;;;;28.27;17.35;;;;;;;10.53;79.26;99558.66;5089188;28;20039;-75
2022/05/03 04:53:47;;;;;;;28.42;16.48;;;;;;;10.60;79.08;99553.72;5089368;28;20040;-76
2022/05/03 04:56:18;;;;;;;29.83;17.75;;;;;;;10.67;77.65;99555.13;5089307;28;20044;-75
2022/05/03 04:58:50;;;;;;;28.58;17.27;;;;;;;10.64;77.66;99552.59;5089936;28;20086;-77
2022/05/03 05:01:19;;;;;;;26.35;17.27;;;;;;;10.78;77.33;99557.13;5089601;28;20523;-74
2022/05/03 05:03:47;;;;;;;26.40;17.40;;;;;;;10.92;77.73;99550.88;5089026;28;20130;-74
2022/05/03 05:06:15;;;;;;;26.73;17.00;;;;;;;11.05;77.50;99557.28;5089438;28;20048;-75
2022/05/03 05:08:44;;;;;;;27.77;17.00;;;;;;;11.14;78.12;99555.78;5089798;28;20052;-73
2022/05/03 05:11:12;;;;;;;26.17;16.50;;;;;;;11.23;77.95;99557.94;5087537;28;20089;-75
2022/05/03 05:13:41;;;;;;;27.90;17.50;;;;;;;11.34;77.23;99559.09;5090845;28;20501;-78
2022/05/03 05:16:09;;;;;;;29.38;17.42;;;;;;;11.47;76.70;99554.63;5089324;28;20048;-76
2022/05/03 05:18:38;;;;;;;24.70;16.85;;;;;;;11.51;76.50;99556.16;5089952;28;20500;-75
2022/05/03 05:21:05;;;;;;;25.15;16.58;;;;;;;11.51;76.91;99555.28;5099054;28;20453;-76
2022/05/03 05:23:33;;;;;;;27.67;17.83;;;;;;;11.58;78.18;99554.78;5099543;28;20044;-76
2022/05/03 05:26:02;;;;;;;27.58;18.73;;;;;;;11.66;79.29;99559.69;5090324;28;20047;-76
2022/05/03 05:28:30;;;;;;;23.88;17.85;;;;;;;11.80;78.35;99555.19;5089530;28;20048;-76
2022/05/03 05:30:57;;;;;;;25.85;18.05;;;;;;;11.80;78.99;99557.91;5089568;28;20051;-77
2022/05/03 05:33:25;;;;;;;25.90;18.08;;;;;;;11.89;76.88;99560.88;5088262;28;20070;-76
2022/05/03 05:35:54;;;;;;;29.38;18.58;;;;;;;11.91;77.05;99562.63;5104431;28;20672;-74
2022/05/03 05:38:21;;;;;;;25.52;17.60;;;;;;;12.03;77.42;99569.94;5102109;28;20058;-75
2022/05/03 05:40:51;;;;;;;27.13;18.42;;;;;;;12.06;78.32;99569.75;5103618;28;20647;-76
2022/05/03 05:43:19;;;;;;;31.60;18.55;;;;;;;12.14;77.92;99567.41;5104412;28;20088;-74
2022/05/03 05:45:48;;;;;;;27.55;18.17;;;;;;;12.16;77.48;99570.88;5101263;28;20042;-78
2022/05/03 05:48:15;;;;;;;25.52;18.17;;;;;;;12.17;78.64;99569.91;5100821;28;20097;-77
2022/05/03 05:50:43;;;;;;;28.88;18.67;;;;;;;12.29;77.03;99564.63;5105240;28;20092;-78
2022/05/03 05:55:58;;;;;;;28.58;17.38;;;;;;;12.34;76.50;99565.16;5100414;28;20044;-78
2022/05/03 05:58:26;;;;;;;24.40;16.42;;;;;;;12.42;76.65;99564.66;5097012;28;20094;-77
2022/05/03 06:00:53;;;;;;;27.05;18.13;;;;;;;12.46;76.55;99563.47;5092943;28;20047;-76
2022/05/03 06:03:22;;;;;;;25.75;16.52;;;;;;;12.51;77.24;99565.88;5093186;28;20066;-77
2022/05/03 06:05:51;;;;;;;24.45;16.40;;;;;;;12.62;75.98;99568.69;5092912;28;20040;-77
2022/05/03 06:08:20;;;;;;;25.67;16.15;;;;;;;12.67;75.36;99565.69;5092822;28;20078;-76
2022/05/03 06:10:49;;;;;;;23.58;16.70;;;;;;;12.70;75.55;99571.75;5092669;28;20040;-77
2022/05/03 06:13:16;;;;;;;24.90;16.60;;;;;;;12.77;75.47;99565.88;5091698;28;20059;-77
2022/05/03 06:15:44;;;;;;;26.17;17.20;;;;;;;12.80;76.31;99571.09;5092041;28;20475;-78
2022/05/03 06:18:13;;;;;;;26.15;16.73;;;;;;;12.87;76.50;99581.41;5099372;28;20047;-76
2022/05/03 06:20:40;;;;;;;22.63;15.77;;;;;;;12.89;76.17;99574.03;5095331;28;20047;-77
2022/05/03 06:23:08;;;;;;;25.75;14.85;;;;;;;13.06;76.28;99571.97;5090608;28;20097;-77
2022/05/03 06:25:37;;;;;;;26.42;15.90;;;;;;;13.10;75.25;99578.91;5091816;28;20039;-76
2022/05/03 06:28:05;;;;;;;23.58;14.55;;;;;;;13.18;74.50;99575.63;5096299;28;20043;-76
2022/05/03 06:30:32;;;;;;;21.70;13.65;;;;;;;13.23;74.04;99578.88;5099362;28;20039;-77
2022/05/03 06:33:00;;;;;;;22.10;13.27;;;;;;;13.31;74.11;99583.78;5091710;28;20079;-77
2022/05/03 06:35:28;;;;;;;16.65;9.52;;;;;;;13.33;68.12;99579.97;5091755;28;20044;-77
2022/05/03 06:37:56;;;;;;;19.10;10.98;;;;;;;13.35;67.39;99584.44;5091476;28;20416;-77
2022/05/03 06:40:24;;;;;;;22.45;11.55;;;;;;;13.41;66.86;99583.97;5092220;28;20523;-76
2022/05/03 06:42:54;;;;;;;20.27;13.18;;;;;;;13.41;67.60;99584.84;5091609;28;20105;-76
2022/05/03 06:45:22;;;;;;;19.73;12.80;;;;;;;13.46;68.72;99584.53;5091527;28;20119;-78
2022/05/03 06:47:51;;;;;;;19.98;12.75;;;;;;;13.52;68.73;99584.09;5091440;28;20048;-77
2022/05/03 06:50:18;;;;;;;20.52;13.68;;;;;;;13.59;69.10;99584.53;5090966;28;20939;-77
2022/05/03 06:52:47;;;;;;;22.30;13.13;;;;;;;13.57;69.31;99579.19;5091512;28;20051;-77
2022/05/03 06:55:15;;;;;;;21.55;12.55;;;;;;;13.65;69.10;99584.06;5091172;28;20404;-77
2022/05/03 06:57:42;;;;;;;20.58;13.10;;;;;;;13.72;68.54;99582.63;5087121;28;20214;-78
2022/05/03 07:00:13;;;;;;;21.10;13.52;;;;;;;13.69;67.61;99582.84;5091019;28;20048;-77
2022/05/03 07:02:41;;;;;;;17.10;11.10;;;;;;;13.74;67.25;99580.66;5091994;28;20044;-79
2022/05/03 07:05:09;;;;;;;17.75;10.45;;;;;;;13.83;65.70;99583.69;5091171;28;20059;-78
2022/05/03 07:07:38;;;;;;;19.40;8.82;;;;;;;13.84;63.02;99582.69;5090452;28;20051;-76
2022/05/03 07:10:07;;;;;;;17.20;9.10;;;;;;;13.83;62.70;99598.13;5091361;28;20048;-76
2022/05/03 07:12:35;;;;;;;17.67;9.18;;;;;;;13.88;62.90;99590.50;5090604;28;20134;-77
2022/05/03 07:15:04;;;;;;;17.30;9.82;;;;;;;13.91;63.70;99590.28;5091391;28;20040;-77
2022/05/03 07:23:03;;;;;;;14.70;8.52;;;;;;;14.08;61.38;99607.19;5112731;28;20043;-84
2022/05/03 07:25:32;;;;;;;14.77;8.43;;;;;;;14.13;61.66;99604.97;5091922;28;20413;-74
2022/05/03 07:28:00;;;;;;;14.43;7.43;;;;;;;14.19;60.39;99600.91;5091134;28;20634;-77
2022/05/03 07:30:27;;;;;;;17.98;7.97;;;;;;;14.23;59.96;99609.72;5090746;28;20053;-75
2022/05/03 07:32:56;;;;;;;15.88;8.10;;;;;;;14.27;58.83;99608.50;5090088;28;20048;-75
2022/05/03 07:35:25;;;;;;;14.45;7.90;;;;;;;14.26;59.14;99601.34;5089586;28;20591;-74
2022/05/03 07:37:52;;;;;;;16.65;8.40;;;;;;;14.31;60.11;99610.00;5098156;28;20040;-74
2022/05/03 07:40:20;;;;;;;13.55;7.50;;;;;;;14.35;58.74;99600.63;5091586;28;20052;-77
2022/05/03 07:42:48;;;;;;;16.23;8.10;;;;;;;14.42;58.98;99603.75;5090108;28;20050;-73
2022/05/03 07:45:16;;;;;;;13.38;7.47;;;;;;;14.41;57.70;99605.59;5091189;28;20584;-74
2022/05/03 07:47:44;;;;;;;16.80;6.78;;;;;;;14.48;58.32;99608.72;5090518;28;20059;-73
2022/05/03 07:50:13;;;;;;;13.57;7.28;;;;;;;14.48;57.90;99606.88;5090118;28;20048;-76
2022/05/03 07:52:41;;;;;;;14.73;7.13;;;;;;;14.55;58.37;99604.53;5091140;28;20378;-75
2022/05/03 07:55:09;;;;;;;14.25;6.93;;;;;;;14.58;58.33;99598.00;5091953;28;20139;-75
2022/05/03 07:57:37;;;;;;;13.05;7.30;;;;;;;14.63;58.17;99612.09;5093337;28;20051;-75
2022/05/03 08:00:06;;;;;;;13.05;7.20;;;;;;;14.64;58.47;99602.97;5094251;28;20048;-73
2022/05/03 08:02:33;;;;;;;14.38;7.95;;;;;;;14.72;59.26;99608.69;5093702;28;20044;-74
2022/05/03 08:05:01;;;;;;;14.98;7.82;;;;;;;14.79;59.94;99611.81;5093266;28;20051;-74
2022/05/03 08:07:30;;;;;;;13.82;7.32;;;;;;;14.87;60.12;99606.66;5074043;28;20045;-74
2022/05/03 08:09:57;;;;;;;13.30;7.63;;;;;;;14.90;59.85;99613.72;5101133;28;20043;-74
2022/05/03 08:12:25;;;;;;;13.35;7.10;;;;;;;14.90;59.23;99620.00;5096711;28;20044;-73
2022/05/03 08:14:53;;;;;;;12.63;7.28;;;;;;;14.84;59.06;99612.31;5093474;28;20048;-74
2022/05/03 08:17:20;;;;;;;16.08;7.47;;;;;;;14.96;58.77;99612.34;5101923;28;20050;-74
2022/05/03 08:19:48;;;;;;;14.10;6.93;;;;;;;15.01;57.94;99610.13;5099486;28;20115;-75
2022/05/03 08:22:15;;;;;;;12.40;6.35;;;;;;;15.05;57.45;99625.22;5073625;28;20106;-74
2022/05/03 08:24:44;;;;;;;14.73;6.35;;;;;;;15.06;57.13;99624.22;5080066;28;20040;-74
2022/05/03 08:27:12;;;;;;;15.25;6.40;;;;;;;15.13;57.10;99619.19;5093477;28;20048;-74
2022/05/03 08:29:39;;;;;;;13.65;6.38;;;;;;;15.19;56.84;99622.28;5093694;28;20044;-75
2022/05/03 08:32:09;;;;;;;11.38;6.53;;;;;;;15.23;56.71;99617.44;5093720;28;20044;-75
2022/05/03 08:34:36;;;;;;;10.95;6.18;;;;;;;15.30;56.61;99612.41;5093323;28;20054;-76
2022/05/03 08:42:47;;;;;;;11.65;5.97;;;;;;;15.31;55.16;99623.16;5051502;28;20056;-76
2022/05/03 08:45:14;;;;;;;12.18;5.60;;;;;;;15.40;56.69;99617.97;5050512;28;20052;-75
2022/05/03 08:47:42;;;;;;;13.55;5.97;;;;;;;15.42;56.17;99616.84;5050851;28;20056;-74
2022/05/03 08:50:11;;;;;;;10.73;5.38;;;;;;;15.57;56.94;99627.50;5049866;28;20049;-75
2022/05/03 08:52:44;;;;;;;10.75;4.88;;;;;;;15.53;55.29;99615.13;5046636;28;20128;-75
2022/05/03 08:55:13;;;;;;;11.57;5.30;;;;;;;15.55;54.65;99614.00;5047863;28;20060;-75
2022/05/03 08:57:42;;;;;;;10.80;5.25;;;;;;;15.63;54.57;99616.13;5047073;28;20592;-75
2022/05/03 09:00:11;;;;;;;12.32;5.53;;;;;;;15.72;55.82;99625.41;5049607;28;20053;-75
2022/05/03 09:02:43;;;;;;;10.32;5.20;;;;;;;15.78;56.14;99611.28;5054095;28;20119;-74
2022/05/03 09:05:11;;;;;;;10.80;5.32;;;;;;;15.78;54.52;99617.56;5053626;28;20076;-75
2022/05/03 09:07:40;;;;;;;11.10;5.90;;;;;;;15.75;53.68;99612.38;5054795;28;20060;-75
2022/05/03 09:10:19;;;;;;;11.48;5.53;;;;;;;15.78;53.03;99611.28;5052247;28;20505;-75
2022/05/03 09:12:49;;;;;;;11.90;5.13;;;;;;;15.84;52.74;99608.06;5056106;28;20059;-74
2022/05/03 09:15:17;;;;;;;10.30;5.30;;;;;;;15.96;53.30;99611.66;5090832;28;20063;-75
2022/05/03 09:17:46;;;;;;;10.48;5.30;;;;;;;15.96;52.46;99608.94;5097533;28;20052;-75
2022/05/03 09:25:50;;;;;;;11.05;4.57;;;;;;;16.06;53.59;99611.72;5095646;28;20036;-75
2022/05/03 09:28:19;;;;;;;10.05;4.75;;;;;;;16.11;52.57;99603.19;5096806;28;20047;-75
2022/05/03 09:30:50;;;;;;;13.50;5.53;;;;;;;16.10;52.27;99606.91;5094615;28;20547;-74
2022/05/03 09:33:19;;;;;;;10.10;4.95;;;;;;;16.18;53.32;99601.69;5098920;28;20412;-75
2022/05/03 09:35:47;;;;;;;12.55;5.20;;;;;;;16.19;51.82;99603.41;5094667;28;20044;-75
2022/05/03 09:38:14;;;;;;;9.63;4.90;;;;;;;16.22;52.17;99597.69;5103736;28;20052;-75
2022/05/03 09:40:43;;;;;;;14.63;5.97;;;;;;;16.24;52.39;99598.44;5104117;28;20497;-79
2022/05/03 09:43:12;;;;;;;11.55;4.30;;;;;;;16.30;52.70;99599.78;5089353;28;20048;-77
2022/05/03 09:45:40;;;;;;;13.40;4.80;;;;;;;16.30;50.34;99607.97;5096011;28;20602;-74
2022/05/03 09:48:08;;;;;;;10.25;4.82;;;;;;;16.33;52.20;99594.97;5092106;28;20048;-78
2022/05/03 09:50:42;;;;;;;9.13;4.70;;;;;;;16.40;49.15;99602.63;5088682;28;20051;-76
2022/05/03 09:53:12;;;;;;;11.55;4.25;;;;;;;16.35;48.57;99597.53;5089128;28;20051;-74
2022/05/03 09:55:40;;;;;;;11.52;4.50;;;;;;;16.46;48.88;99600.22;5089333;28;20530;-76
2022/05/03 09:58:10;;;;;;;12.55;4.75;;;;;;;16.50;49.08;99604.41;5089187;28;20098;-77
2022/05/03 10:00:41;;;;;;;9.90;4.47;;;;;;;16.40;48.85;99602.63;5071367;28;20122;-75
2022/05/03 10:03:10;;;;;;;13.68;4.68;;;;;;;16.35;48.74;99598.41;5090057;28;20059;-78
2022/05/03 10:05:39;;;;;;;9.88;4.47;;;;;;;16.36;48.94;99591.09;5089475;28;20048;-78
2022/05/03 10:08:07;;;;;;;8.85;4.28;;;;;;;16.42;49.34;99589.72;5089189;28;20303;-75
2022/05/03 10:10:35;;;;;;;12.27;4.57;;;;;;;16.49;49.80;99591.78;5089242;28;20487;-75
2022/05/03 10:13:03;;;;;;;12.23;6.55;;;;;;;16.52;49.43;99593.38;5088557;28;20067;-76
2022/05/03 10:21:13;;;;;;;11.57;5.00;;;;;;;16.61;48.85;99589.00;5110152;28;20055;-75
2022/05/03 10:23:41;;;;;;;12.23;4.40;;;;;;;16.68;48.47;99578.41;5102576;28;20040;-76
2022/05/03 10:26:10;;;;;;;14.88;5.15;;;;;;;16.68;48.40;99587.47;5102488;28;20055;-76
2022/05/03 10:29:08;;;;;;;11.40;5.22;;;;;;;16.62;47.59;99575.22;5103209;28;20040;-75
2022/05/03 10:31:55;;;;;;;10.73;4.90;;;;;;;16.71;47.69;99576.31;5049005;28;20462;-76
2022/05/03 10:34:56;;;;;;;12.18;5.00;;;;;;;16.71;47.25;99578.16;5010033;28;20058;-75
2022/05/03 10:38:08;;;;;;;9.85;4.75;;;;;;;16.66;47.38;99573.13;5009842;28;20450;-79
2022/05/03 10:40:41;;;;;;;10.18;5.03;;;;;;;16.70;47.15;99577.31;4970279;28;20054;-76
2022/05/03 10:43:10;;;;;;;10.63;5.25;;;;;;;16.60;47.79;99570.94;4953700;28;20437;-77
2022/05/03 10:45:54;;;;;;;11.38;5.28;;;;;;;16.63;48.59;99570.66;4951130;28;20063;-77
2022/05/03 10:48:26;;;;;;;13.52;5.38;;;;;;;16.57;47.80;99568.47;4951161;28;20056;-77
2022/05/03 10:50:57;;;;;;;9.98;5.15;;;;;;;16.65;47.80;99569.50;4950636;28;20062;-77
2022/05/03 10:53:29;;;;;;;12.32;5.30;;;;;;;16.54;47.42;99566.84;4952717;28;20068;-75
2022/05/03 10:56:16;;;;;;;10.95;5.38;;;;;;;16.61;48.46;99561.75;4951850;28;20126;-75
2022/05/03 10:58:45;;;;;;;11.88;6.03;;;;;;;16.63;48.34;99565.22;4953453;28;20134;-75
2022/05/03 11:01:17;;;;;;;12.80;5.28;;;;;;;16.78;49.55;99574.78;4961218;28;20611;-75
2022/05/03 11:04:09;;;;;;;12.82;5.10;;;;;;;16.79;48.81;99565.59;4959662;28;20047;-76
2022/05/03 11:06:43;;;;;;;13.05;5.20;;;;;;;16.74;48.20;99556.09;5010121;28;20064;-74
2022/05/03 11:09:16;;;;;;;17.42;5.68;;;;;;;16.71;48.37;99554.50;5017962;28;20057;-75
2022/05/03 11:11:52;;;;;;;12.65;5.55;;;;;;;16.70;47.71;99552.75;5020555;28;20096;-74
2022/05/03 11:14:48;;;;;;;10.93;5.28;;;;;;;17.02;47.48;99565.50;5019133;28;20148;-76
2022/05/03 11:17:16;;;;;;;10.82;5.15;;;;;;;17.13;46.28;99550.03;5040345;28;20056;-74
2022/05/03 11:19:55;;;;;;;11.80;5.65;;;;;;;17.02;46.00;99556.44;5050000;28;20045;-75
2022/05/03 11:22:26;;;;;;;10.75;5.13;;;;;;;17.17;46.14;99546.03;5052683;28;20051;-76
2022/05/03 11:24:57;;;;;;;11.75;4.80;;;;;;;17.13;46.54;99553.59;5050934;28;20119;-74
2022/05/03 11:27:25;;;;;;;10.48;5.00;;;;;;;17.11;47.59;99546.56;5050359;28;20052;-74
2022/05/03 11:29:57;;;;;;;9.70;4.72;;;;;;;17.36;48.52;99548.84;5050753;28;20507;-78
2022/05/03 11:32:37;;;;;;;10.65;4.82;;;;;;;17.49;47.07;99545.00;5051671;28;20064;-78
2022/05/03 11:35:07;;;;;;;9.45;4.70;;;;;;;17.39;44.65;99539.50;5052028;28;20051;-78
2022/05/03 11:37:37;;;;;;;9.80;5.05;;;;;;;17.51;44.53;99548.47;5050953;28;20509;-78
2022/05/03 11:40:06;;;;;;;12.30;5.40;;;;;;;17.47;44.62;99542.41;5050189;28;20043;-78
2022/05/03 11:42:42;;;;;;;13.60;4.78;;;;;;;17.53;44.73;99544.56;5050740;28;20041;-77
2022/05/03 11:45:10;;;;;;;12.63;4.40;;;;;;;17.61;42.93;99538.44;5051145;28;20128;-76
2022/05/03 11:47:41;;;;;;;13.40;4.68;;;;;;;17.67;43.51;99539.75;5058137;28;20100;-76
2022/05/03 11:50:10;;;;;;;9.68;4.57;;;;;;;17.58;44.81;99543.31;5050442;28;20049;-76
2022/05/03 11:58:10;;;;;;;11.10;4.68;;;;;;;17.85;43.02;99530.88;5052312;28;20540;-76
2022/05/03 12:00:46;;;;;;;10.80;4.45;;;;;;;17.92;42.92;99535.63;5051742;28;20137;-76
2022/05/03 12:03:14;;;;;;;10.82;4.82;;;;;;;17.88;43.13;99527.84;5053251;28;20041;-76
2022/05/03 12:05:56;;;;;;;9.80;4.18;;;;;;;17.92;42.48;99540.22;5053491;28;20037;-75
2022/05/03 12:08:25;;;;;;;9.65;4.25;;;;;;;18.05;42.62;99539.97;5055512;28;20049;-78
2022/05/03 12:10:56;;;;;;;10.10;4.38;;;;;;;18.02;41.49;99535.69;5058634;28;20044;-75
2022/05/03 12:13:29;;;;;;;11.80;4.32;;;;;;;17.90;42.84;99531.28;5075239;28;20044;-77
2022/05/03 12:16:17;;;;;;;13.23;4.47;;;;;;;17.80;42.53;99525.84;5097079;28;20051;-78